• Join FlightAware (Why Join?)
  • Login
  • US Flag 
07:06AM EDT


 

Airport Tracker/Info


-or-


 

Live Flight TrackerFlight Track Log ✈ EJA583 ✈ 19-Jul-2013 ✈ KTEB - KMDW

Flight Track Log - Related Links

Times and Time Zones

All times are in EDT time to prevent confusion due to time zone crossing. See the EJA583 flight status page for this flight to view local times or setup timezone preferences in your user account.

Time Position Orientation Groundspeed Altitude Reporting Facility
EDT Latitude Longitude Course Direction KTS MPH feet Rate Location/Type
12:28PM 40.8167 -74.1333 270° West 208 239 1,500  Level New York TRACON
12:29PM 40.8000 -74.2167 255° West 218 251 3,900 2,520 Climbing New York TRACON
12:30PM 40.8000 -74.3000 270° West 259 298 6,600 2,700 Climbing New York TRACON
12:31PM 40.8333 -74.3667 303° West 235 270 9,100 2,460 Climbing New York TRACON
12:32PM 40.8667 -74.4500 298° West 267 307 11,300 2,160 Climbing New York TRACON
12:33PM 40.8834 -74.7590 270° West  Level FlightAware Approximate
12:33PM 40.9000 -74.5333 298° West 294 338 13,500  Level New York TRACON
12:34PM 40.9667 -74.6333 311° West 313 360 15,800 1,800 Climbing New York TRACON
12:35PM 40.9828 -74.7292 283° West 313 360 17,000 660 Climbing New York Center
12:36PM 40.9664 -74.8464 260° West 341 392 17,000  Level New York Center
12:37PM 40.9472 -74.9769 259° West 357 411 17,000  Level New York Center
12:38PM 40.9283 -75.0939 258° West 364 419 17,000 420 Level New York Center
12:39PM 40.9022 -75.2350 256° West 364 419 17,900 1,200 Climbing New York Center
12:40PM 40.8744 -75.3594 254° West 369 425 19,400 1,440 Climbing New York Center
12:41PM 40.8467 -75.4839 254° West 369 425 20,900 1,440 Climbing New York Center
12:42PM 40.8167 -75.6106 253° West 364 419 22,300 1,380 Climbing New York Center
12:43PM 40.7864 -75.7372 253° West 364 419 23,700 1,320 Climbing New York Center
12:44PM 40.7539 -75.8664 252° West 364 419 25,000 1,200 Climbing New York Center
12:45PM 40.7231 -75.9956 253° West 364 419 26,200 1,080 Climbing New York Center
12:46PM 40.6972 -76.1114 254° West 364 419 27,200 1,080 Climbing New York Center
12:47PM 40.6681 -76.2431 254° West 370 426 28,400 1,200 Climbing New York Center
12:48PM 40.6825 -76.3811 278° West 369 425 29,700 1,140 Climbing New York Center
12:49PM 40.7031 -76.5169 281° West 369 425 30,800 1,140 Climbing New York Center
12:50PM 40.7256 -76.6531 282° West 375 432 32,000 1,080 Climbing New York Center
12:51PM 40.7458 -76.7919 281° West 375 432 33,000 1,020 Climbing New York Center
12:52PM 40.7675 -76.9336 281° West 380 437 34,100 1,020 Climbing New York Center
12:53PM 40.7872 -77.0750 280° West 385 443 35,100 1,020 Climbing New York Center
12:54PM 40.8067 -77.2167 280° West 395 455 36,200 960 Climbing New York Center
12:55PM 40.8300 -77.3589 282° West 400 460 37,100 900 Climbing New York Center
12:56PM 40.8489 -77.5089 279° West 400 460 38,000 240 Climbing New York Center
12:58PM 40.8931 -77.8417 280° West 426 490 38,000  Level Cleveland Center
12:59PM 40.9156 -77.9975 281° West 432 497 38,000  Level Cleveland Center
01:00PM 40.9336 -78.1506 279° West 427 491 38,000  Level Cleveland Center
01:01PM 40.9578 -78.3231 281° West 435 501 38,000  Level Cleveland Center
01:02PM 40.9775 -78.4736 280° West 435 501 38,000  Level Cleveland Center
01:03PM 40.9947 -78.6244 279° West 429 494 38,000  Level Cleveland Center
01:04PM 41.0139 -78.7781 279° West 429 494 38,000  Level Cleveland Center
01:05PM 41.0308 -78.9372 278° West 429 494 38,000  Level Cleveland Center
01:06PM 41.0497 -79.0908 279° West 429 494 38,000  Level Cleveland Center
01:07PM 41.0683 -79.2447 279° West 429 494 38,000  Level Cleveland Center
01:08PM 41.0825 -79.3986 277° West 424 488 38,000  Level Cleveland Center
01:09PM 41.1006 -79.5469 279° West 424 488 38,000  Level Cleveland Center
01:10PM 41.1164 -79.6983 278° West 424 488 38,000  Level Cleveland Center
01:11PM 41.1300 -79.8389 277° West 424 488 38,000  Level Cleveland Center
01:12PM 41.1497 -80.0042 279° West 424 488 38,000  Level Cleveland Center
01:13PM 41.1650 -80.1556 278° West 419 482 38,000  Level Cleveland Center
01:14PM 41.1822 -80.3100 278° West 419 482 38,000  Level Cleveland Center
01:15PM 41.1950 -80.4481 277° West 424 488 38,000  Level Cleveland Center
01:16PM 41.2117 -80.6025 278° West 424 488 38,000  Level Cleveland Center
01:17PM 41.2239 -80.7542 276° West 424 488 38,000  Level Cleveland Center
01:18PM 41.2403 -80.9061 278° West 424 488 38,000  Level Cleveland Center
01:19PM 41.2689 -81.0583 284° West 424 488 38,000  Level Cleveland Center
01:20PM 41.2975 -81.2078 284° West 424 488 38,000  Level Cleveland Center
01:21PM 41.3258 -81.3572 284° West 418 481 38,000  Level Cleveland Center
01:22PM 41.3600 -81.5236 285° West 418 481 38,000  Level Cleveland Center
01:23PM 41.3836 -81.6708 282° West 412 474 38,000  Level Cleveland Center
01:24PM 41.4072 -81.8150 282° West 430 495 38,000  Level Cleveland Center
01:25PM 41.4264 -81.9622 280° West 420 483 38,000  Level Cleveland Center
01:26PM 41.4494 -82.1122 282° West 415 478 38,000  Level Cleveland Center
01:27PM 41.4744 -82.2597 283° West 409 471 38,000  Level Cleveland Center
01:28PM 41.4992 -82.4239 281° West 409 471 38,000  Level Cleveland Center
01:29PM 41.4986 -82.5736 270° West 409 471 38,000  Level Cleveland Center
01:30PM 41.4981 -82.7233 270° West 409 471 38,000  Level Cleveland Center
01:31PM 41.4992 -82.8814 271° West 408 470 38,000  Level Cleveland Center
01:32PM 41.4981 -83.0339 269° West 418 481 38,000  Level Cleveland Center
01:33PM 41.4972 -83.1614 270° West 426 490 38,000  Level Cleveland Center
01:34PM 41.4933 -83.3333 268° West 426 490 38,000  Level Cleveland Center
01:35PM 41.4936 -83.4886 270° West 421 484 38,000  Level Cleveland Center
01:36PM 41.4917 -83.6436 269° West 421 484 38,000  Level Cleveland Center
01:37PM 41.4894 -83.7989 269° West 421 484 38,000  Level Cleveland Center
01:37PM 41.4917 -83.8758 272° West 418 481 38,000 -1,140 Level Chicago Center
01:38PM 41.4906 -84.0269 269° West 410 472 36,300 -1,920 Descending Chicago Center
01:39PM 41.4878 -84.2069 269° West 405 466 34,100 -1,980 Descending Chicago Center
01:40PM 41.4853 -84.3489 269° West 388 447 32,300 -1,800 Descending Chicago Center
01:42PM 41.4833 -84.4903 269° West 383 441 30,400 -1,140 Descending Chicago Center
01:43PM 41.4814 -84.6339 269° West 386 444 30,000 -240 Descending Chicago Center
01:44PM 41.4853 -84.7750 272° West 382 440 30,000 -300 Level Chicago Center
01:45PM 41.4908 -84.9153 273° West 380 437 29,500 -900 Descending Chicago Center
01:46PM 41.4961 -85.0789 273° West 369 425 28,200 -1,380 Descending Chicago Center
01:47PM 41.5003 -85.2139 272° West 365 420 26,700 -1,440 Descending Chicago Center
01:48PM 41.5039 -85.3508 272° West 364 419 25,300 -1,380 Descending Chicago Center
01:49PM 41.5089 -85.4869 273° West 359 413 23,900 -1,500 Descending Chicago Center
01:50PM 41.5128 -85.6178 272° West 350 403 22,300 -1,500 Descending Chicago Center
01:51PM 41.5164 -85.7431 272° West 340 391 20,900 -1,500 Descending Chicago Center
01:52PM 41.5203 -85.8631 273° West 326 375 19,200 -1,740 Descending Chicago Center
01:53PM 41.5231 -85.9814 272° West 321 369 17,300 -1,980 Descending Chicago Center
01:54PM 41.5239 -86.1175 271° West 309 356 15,200 -1,920 Descending Chicago Center
01:55PM 41.5236 -86.2364 270° West 320 368 13,400 -1,800 Descending Chicago Center
01:56PM 41.5222 -86.3483 269° West 307 353 11,600 -1,200 Descending Chicago Center
01:57PM 41.5219 -86.4561 270° West 295 339 11,000 -780 Descending Chicago Center
01:58PM 41.5203 -86.5644 269° West 293 337 10,100 -540 Descending Chicago Center
01:59PM 41.5203 -86.6725 270° West 294 338 10,000 -60 Descending Chicago Center
02:00PM 41.5197 -86.7858 270° West 293 337 10,000 -240 Level Chicago Center
02:01PM 41.5192 -86.9153 270° West 295 339 9,600 -900 Descending Chicago Center
02:02PM 41.5172 -87.0097 268° West 266 306 8,200 -1,500 Descending Chicago Center
02:03PM 41.5117 -87.1022 265° West 254 292 6,500 -1,080 Descending Chicago Center
02:04PM 41.5050 -87.1847 264° West 228 262 6,000 -240 Descending Chicago Center
02:05PM 41.5117 -87.2500 278° West 186 214 6,100 -720 Climbing Chicago Center
02:06PM 41.5186 -87.3286 277° West 180 207 4,600 -1,020 Descending Chicago Center
02:07PM 41.5264 -87.3886 280° West 172 198 4,000 -300 Descending Chicago Center
02:08PM 41.5606 -87.4364 314° West 185 213 4,000  Level Chicago Center
02:09PM 41.5947 -87.4856 313° West 184 212 4,000  Level Chicago Center
02:10PM 41.6300 -87.5353 314° West 184 212 4,000 -300 Level Chicago Center
02:12PM 41.6725 -87.5939 314° West 185 213 3,500 -720 Descending Chicago Center
02:13PM 41.7061 -87.6422 313° West 183 211 2,600 -960 Descending Chicago Center
02:14PM 41.7400 -87.6897 314° West 180 207 1,600 -480 Descending Chicago Center
02:15PM 41.7897 -87.6786 North 191 220 1,700 -60 Climbing Chicago Center
02:16PM 41.8225 -87.6950 340° North 169 194 1,500 -360 Descending Chicago Center
02:17PM 41.8031 -87.7308 234° Southwest 137 158 1,000 -540 Descending Chicago Center
02:19PM 41.7833 -87.7500 236° Southwest  Level FlightAware Approximate